Terminal Aerodrome Forecast
Issued by NWS

Home | Current Version | Previous Version | Text Only | Print | Product List | Glossary On
Versions: 1 2 3 4 5 6 7 8 9 10 11 12 13 14 15 16 17 18 19 20 21 22 23 24
211
FTUS43 KMQT 261133 AAE
TAFCMX
TAF AMD
KCMX 261133Z 2612/2712 06003KT 1/4SM FG OVC002
     FM261500 28007KT 4SM BR OVC003
     FM261900 25005KT P6SM BKN040
     FM262100 18003KT P6SM SCT130
     FM270600 00000KT 1SM BR BKN025
     FM270900 00000KT 1SM BR BKN010=

USA.gov is the U.S. government's official web portal to all federal, state and local government web resources and services.